Wednesday, December 19, 2018, 12:39 AM EST
Back to Local

KLEB, Lebanon Municipal Airport

Location: Lebanon, NH, United States Lat: 43.633
Local Time: 12:39 AM EST ( 5:39 GMT) Lon: -72.3
Time Zone: US/Eastern Elev: 597 ft

Show me the last for .
Show Decoded

2018-12-18 23:53 METAR KLEB 190453Z AUTO 16003KT 10SM FEW029 M09/M13 A3006 RMK AO2 SLP192
                 T10891133 410331089 =
2018-12-18 23:42 METAR KLEB 190442Z AUTO 00000KT 10SM SCT029 M07/M14 A3006 RMK AO2 T10671139 =
2018-12-18 23:31 METAR KLEB 190431Z AUTO 31003KT 10SM BKN028 M07/M13 A3006 RMK AO2 T10671133 =
2018-12-18 22:53 METAR KLEB 190353Z AUTO 28005KT 10SM SCT028 M07/M13 A3006 RMK AO2 SLP195
                 T10671133 =
2018-12-18 21:53 METAR KLEB 190253Z 29005KT 10SM BKN028 M06/M13 A3006 RMK AO2 SLP192 T10611128
                 53008 =
2018-12-18 20:53 METAR KLEB 190153Z 33003KT 10SM OVC028 M06/M13 A3004 RMK AO2 SLP187 T10611128 =
2018-12-18 19:53 METAR KLEB 190053Z 31008KT 10SM OVC026 M06/M12 A3004 RMK AO2 SLP186 T10561122 =
2018-12-18 18:53 METAR KLEB 182353Z 33007KT 10SM BKN028 M06/M12 A3003 RMK AO2 SLP184 T10561122
                 11033 21056 53018 =
2018-12-18 18:06 METAR KLEB 182306Z 33010G18KT 10SM OVC029 M06/M12 A3002 RMK AO2 T10561122 =
2018-12-18 17:53 METAR KLEB 182253Z 32009KT 10SM OVC030 M06/M12 A3001 RMK AO2 SLP176 T10561122 =
2018-12-18 17:30 METAR KLEB 182230Z 32010KT 10SM OVC030 M05/M12 A3001 RMK AO2 T10501122 =
2018-12-18 16:53 METAR KLEB 182153Z 33009G18KT 10SM OVC028 M05/M12 A3000 RMK AO2 SLP172 T10501122
                 =
2018-12-18 15:53 METAR KLEB 182053Z 33013G19KT 10SM SCT034 M04/M13 A2998 RMK AO2 SLP164 T10441128
                 53023 =
2018-12-18 14:53 METAR KLEB 181953Z 34010G19KT 10SM SCT033 M03/M12 A2995 RMK AO2 SLP154 T10331122
                 =
2018-12-18 13:53 METAR KLEB 181853Z 32010G17KT 10SM SCT035 M03/M12 A2993 RMK AO2 SLP147 T10331117
                 =
2018-12-18 12:53 METAR KLEB 181753Z 33015G26KT 300V360 10SM CLR M04/M12 A2991 RMK AO2 PK WND
                 32026/1752 SLP140 60000 T10391122 11039 21067 58010 =
2018-12-18 11:53 METAR KLEB 181653Z 33009G19KT 10SM BKN032 OVC055 M04/M13 A2992 RMK AO2 PK WND
                 31027/1631 UPB02E04 SLP145 P0000 T10441128 =
2018-12-18 11:23 METAR KLEB 181623Z 35016G25KT 10SM SCT030 OVC060 M05/M13 A2992 RMK AO2 UPB02E04
                 P0000 T10501128 =
2018-12-18 11:05 METAR KLEB 181605Z 33015G25KT 10SM BKN029 OVC060 M06/M13 A2993 RMK AO2 UPB02E04
                 P0000 T10561133 =
2018-12-18 10:53 METAR KLEB 181553Z 31011G19KT 10SM SCT030 OVC055 M06/M13 A2993 RMK AO2 PK WND
                 35027/1511 SLP147 T10561133 =
2018-12-18 10:09 METAR KLEB 181509Z 35015G24KT 10SM OVC031 M06/M14 A2994 RMK AO2 T10611139 =
2018-12-18 09:53 METAR KLEB 181453Z 33011G20KT 10SM OVC029 M06/M14 A2994 RMK AO2 SLP150 T10611139
                 51030 =
2018-12-18 08:53 METAR KLEB 181353Z 33013G23KT 10SM OVC029 M07/M14 A2992 RMK AO2 SLP143 T10671139
                 =
2018-12-18 08:46 METAR KLEB 181346Z 35013G23KT 10SM OVC029 M07/M14 A2992 RMK AO2 T10671139 =
2018-12-18 08:27 METAR KLEB 181327Z 34012G23KT 10SM OVC031 M07/M14 A2991 RMK AO2 T10671139 =
2018-12-18 08:10 METAR KLEB 181310Z 33014G23KT 10SM OVC029 M07/M14 A2990 RMK AO2 T10671139 =
2018-12-18 07:53 METAR KLEB 181253Z 34013G22KT 10SM OVC030 M07/M14 A2989 RMK AO2 SLP132 T10671139
                 =
2018-12-18 07:45 METAR KLEB 181245Z 35010G20KT 10SM OVC029 M07/M14 A2989 RMK AO2 T10671139 =
2018-12-18 07:35 METAR KLEB 181235Z 34012G20KT 10SM OVC031 M07/M14 A2988 RMK AO2 T10671139 =
2018-12-18 07:09 METAR KLEB 181209Z 34012KT 10SM BKN029 OVC035 M07/M14 A2986 RMK AO2 T10671139 =
2018-12-18 06:53 METAR KLEB 181153Z 35010G25KT 10SM BKN030 OVC035 M07/M14 A2985 RMK AO2 PK WND
                 32027/1100 SLP119 60001 70005 T10671139 11044 21067 53030 =
2018-12-18 05:53 METAR KLEB 181053Z AUTO 32019G29KT 10SM FEW039 SCT055 BKN070 M07/M14 A2981 RMK
                 AO2 PK WND 30029/1052 SLP106 T10671139 =
2018-12-18 04:53 METAR KLEB 180953Z AUTO 34014G24KT 10SM FEW031 OVC049 M07/M14 A2978 RMK AO2 PK
                 WND 33027/0911 SLP095 T10671139 =
2018-12-18 03:53 METAR KLEB 180853Z AUTO 33010G18KT 10SM BKN032 OVC044 M07/M13 A2976 RMK AO2
                 SLP088 60001 T10671128 53022 =
2018-12-18 03:20 METAR KLEB 180820Z AUTO 32010G17KT 280V350 10SM BKN030 BKN035 OVC042 M06/M13
                 A2974 RMK AO2 T10611133 =
2018-12-18 02:53 METAR KLEB 180753Z AUTO 33008G21KT 10SM BKN029 OVC038 M06/M13 A2973 RMK AO2
                 SLP079 P0001 T10611128 =
2018-12-18 02:05 METAR KLEB 180705Z AUTO 34012G19KT 10SM FEW023 BKN028 OVC044 M06/M12 A2970 RMK
                 AO2 T10561122 =
2018-12-18 01:53 METAR KLEB 180653Z AUTO 31013G21KT 280V340 9SM SCT026 BKN035 OVC044 M06/M12
                 A2969 RMK AO2 PK WND 31029/0611 SNB01E48 SLP065 P0000 T10561122 =
2018-12-18 01:50 METAR KLEB 180650Z AUTO 33013G21KT 8SM SCT026 BKN033 OVC041 M06/M12 A2969 RMK
                 AO2 PK WND 31029/0611 SNB01E48 P0000 =
2018-12-18 01:20 METAR KLEB 180620Z AUTO 32012G29KT 3SM -SN FEW016 BKN028 OVC035 M06/M11 A2968
                 RMK AO2 PK WND 31029/0611 SNB01 P0000 T10561106 =
2018-12-18 01:18 METAR KLEB 180618Z AUTO 33012G29KT 2 1/2SM -SN FEW016 BKN030 OVC035 M06/M11
                 A2967 RMK AO2 PK WND 31029/0611 SNB01 P0000 T10561106 =
2018-12-18 00:53 METAR KLEB 180553Z AUTO 33015G23KT 10SM SCT034 M04/M12 A2966 RMK AO2 PK WND
                 30028/0543 SLP052 60001 T10441122 10017 21044 53025 =

Support USWX by starting your Amazon purchase here.